sensor_id;sensor_type;location;lat;lon;timestamp;P1;durP1;ratioP1;P2;durP2;ratioP2
65071;SDS011;51663;52.310;17.016;2024-03-23T00:54:05;25.77;;;17.57;;
65071;SDS011;51663;52.310;17.016;2024-03-23T00:57:06;25.20;;;18.13;;
65071;SDS011;51663;52.310;17.016;2024-03-23T01:00:07;26.27;;;18.17;;
65071;SDS011;51663;52.310;17.016;2024-03-23T01:03:11;26.53;;;17.23;;
65071;SDS011;51663;52.310;17.016;2024-03-23T01:06:12;28.33;;;17.57;;
65071;SDS011;51663;52.310;17.016;2024-03-23T01:09:13;25.40;;;17.27;;
65071;SDS011;51663;52.310;17.016;2024-03-23T01:12:14;25.23;;;16.73;;
65071;SDS011;51663;52.310;17.016;2024-03-23T01:15:16;25.80;;;16.70;;
65071;SDS011;51663;52.310;17.016;2024-03-23T01:18:17;23.23;;;17.20;;
65071;SDS011;51663;52.310;17.016;2024-03-23T01:21:19;21.58;;;16.50;;
65071;SDS011;51663;52.310;17.016;2024-03-23T01:24:20;24.87;;;17.63;;
65071;SDS011;51663;52.310;17.016;2024-03-23T01:27:21;23.83;;;17.03;;
65071;SDS011;51663;52.310;17.016;2024-03-23T01:30:23;26.47;;;17.90;;
65071;SDS011;51663;52.310;17.016;2024-03-23T01:33:25;26.43;;;18.10;;
65071;SDS011;51663;52.310;17.016;2024-03-23T01:36:26;27.13;;;18.57;;
65071;SDS011;51663;52.310;17.016;2024-03-23T01:39:27;27.50;;;19.00;;
65071;SDS011;51663;52.310;17.016;2024-03-23T01:42:28;27.70;;;20.10;;
65071;SDS011;51663;52.310;17.016;2024-03-23T01:45:30;27.57;;;20.93;;
65071;SDS011;51663;52.310;17.016;2024-03-23T01:48:34;29.23;;;20.20;;
65071;SDS011;51663;52.310;17.016;2024-03-23T01:51:36;28.27;;;19.57;;
65071;SDS011;51663;52.310;17.016;2024-03-23T01:54:38;29.80;;;19.40;;
65071;SDS011;51663;52.310;17.016;2024-03-23T01:57:40;28.17;;;18.60;;
65071;SDS011;51663;52.310;17.016;2024-03-23T02:00:42;25.10;;;18.13;;
65071;SDS011;51663;52.310;17.016;2024-03-23T02:03:43;24.53;;;17.87;;
65071;SDS011;51663;52.310;17.016;2024-03-23T02:06:44;23.50;;;18.43;;
65071;SDS011;51663;52.310;17.016;2024-03-23T02:09:46;28.52;;;20.30;;
65071;SDS011;51663;52.310;17.016;2024-03-23T02:12:47;28.80;;;19.73;;
65071;SDS011;51663;52.310;17.016;2024-03-23T02:15:48;28.10;;;19.00;;
65071;SDS011;51663;52.310;17.016;2024-03-23T02:18:49;30.73;;;20.10;;
65071;SDS011;51663;52.310;17.016;2024-03-23T02:21:51;30.37;;;20.67;;
65071;SDS011;51663;52.310;17.016;2024-03-23T02:24:52;29.90;;;20.60;;
65071;SDS011;51663;52.310;17.016;2024-03-23T02:27:53;32.93;;;20.57;;
65071;SDS011;51663;52.310;17.016;2024-03-23T02:30:55;30.43;;;19.53;;
65071;SDS011;51663;52.310;17.016;2024-03-23T02:33:56;27.80;;;20.17;;
65071;SDS011;51663;52.310;17.016;2024-03-23T02:36:57;29.80;;;20.73;;
65071;SDS011;51663;52.310;17.016;2024-03-23T02:39:58;34.73;;;21.63;;
65071;SDS011;51663;52.310;17.016;2024-03-23T02:42:59;34.77;;;21.73;;
65071;SDS011;51663;52.310;17.016;2024-03-23T02:46:01;33.57;;;22.10;;
65071;SDS011;51663;52.310;17.016;2024-03-23T02:49:03;33.20;;;21.43;;
65071;SDS011;51663;52.310;17.016;2024-03-23T02:52:05;32.83;;;21.50;;
65071;SDS011;51663;52.310;17.016;2024-03-23T02:55:06;32.33;;;21.17;;
65071;SDS011;51663;52.310;17.016;2024-03-23T02:58:08;34.07;;;21.43;;
65071;SDS011;51663;52.310;17.016;2024-03-23T03:01:09;30.57;;;21.57;;
65071;SDS011;51663;52.310;17.016;2024-03-23T03:04:10;31.10;;;21.40;;
65071;SDS011;51663;52.310;17.016;2024-03-23T03:07:11;29.33;;;21.47;;
65071;SDS011;51663;52.310;17.016;2024-03-23T03:10:13;32.70;;;22.43;;
65071;SDS011;51663;52.310;17.016;2024-03-23T03:13:14;32.43;;;22.40;;
65071;SDS011;51663;52.310;17.016;2024-03-23T03:16:15;32.47;;;21.63;;
65071;SDS011;51663;52.310;17.016;2024-03-23T03:19:17;33.53;;;21.23;;
65071;SDS011;51663;52.310;17.016;2024-03-23T03:22:18;33.03;;;21.53;;
65071;SDS011;51663;52.310;17.016;2024-03-23T03:25:19;29.20;;;21.60;;
65071;SDS011;51663;52.310;17.016;2024-03-23T03:28:20;30.73;;;21.63;;
65071;SDS011;51663;52.310;17.016;2024-03-23T03:31:21;32.97;;;22.20;;
65071;SDS011;51663;52.310;17.016;2024-03-23T03:34:23;29.73;;;20.57;;
65071;SDS011;51663;52.310;17.016;2024-03-23T03:37:24;33.70;;;22.00;;
65071;SDS011;51663;52.310;17.016;2024-03-23T03:40:25;31.05;;;21.20;;
65071;SDS011;51663;52.310;17.016;2024-03-23T03:43:27;32.77;;;21.70;;
65071;SDS011;51663;52.310;17.016;2024-03-23T03:46:28;29.10;;;21.37;;
65071;SDS011;51663;52.310;17.016;2024-03-23T03:49:29;32.40;;;21.87;;
65071;SDS011;51663;52.310;17.016;2024-03-23T03:52:31;33.03;;;22.40;;
65071;SDS011;51663;52.310;17.016;2024-03-23T03:55:32;31.37;;;22.50;;
65071;SDS011;51663;52.310;17.016;2024-03-23T03:58:33;34.40;;;22.43;;
65071;SDS011;51663;52.310;17.016;2024-03-23T04:01:34;33.57;;;22.60;;
65071;SDS011;51663;52.310;17.016;2024-03-23T04:04:36;33.03;;;22.40;;
65071;SDS011;51663;52.310;17.016;2024-03-23T04:07:37;35.63;;;22.87;;
65071;SDS011;51663;52.310;17.016;2024-03-23T04:10:39;31.83;;;23.17;;
65071;SDS011;51663;52.310;17.016;2024-03-23T04:13:41;37.90;;;23.67;;
65071;SDS011;51663;52.310;17.016;2024-03-23T04:16:42;36.93;;;23.17;;
65071;SDS011;51663;52.310;17.016;2024-03-23T04:19:44;34.77;;;23.60;;
65071;SDS011;51663;52.310;17.016;2024-03-23T04:22:45;32.47;;;22.23;;
65071;SDS011;51663;52.310;17.016;2024-03-23T04:25:46;30.17;;;21.37;;
65071;SDS011;51663;52.310;17.016;2024-03-23T04:28:48;29.30;;;20.30;;
65071;SDS011;51663;52.310;17.016;2024-03-23T04:31:49;28.23;;;18.57;;
65071;SDS011;51663;52.310;17.016;2024-03-23T04:34:50;24.63;;;17.93;;
65071;SDS011;51663;52.310;17.016;2024-03-23T04:37:51;23.90;;;18.07;;
65071;SDS011;51663;52.310;17.016;2024-03-23T04:40:54;24.20;;;16.93;;
65071;SDS011;51663;52.310;17.016;2024-03-23T04:43:56;22.33;;;15.80;;
65071;SDS011;51663;52.310;17.016;2024-03-23T04:46:58;21.87;;;16.17;;
65071;SDS011;51663;52.310;17.016;2024-03-23T04:50:01;21.43;;;15.60;;
65071;SDS011;51663;52.310;17.016;2024-03-23T04:53:04;20.03;;;14.90;;
65071;SDS011;51663;52.310;17.016;2024-03-23T04:56:05;22.70;;;15.50;;
65071;SDS011;51663;52.310;17.016;2024-03-23T04:59:06;20.77;;;15.03;;
65071;SDS011;51663;52.310;17.016;2024-03-23T05:02:07;22.70;;;15.87;;
65071;SDS011;51663;52.310;17.016;2024-03-23T05:05:09;21.53;;;14.97;;
65071;SDS011;51663;52.310;17.016;2024-03-23T05:08:10;19.90;;;15.63;;
65071;SDS011;51663;52.310;17.016;2024-03-23T05:11:11;7.50;;;6.47;;
65071;SDS011;51663;52.310;17.016;2024-03-23T05:14:13;4.97;;;4.20;;
65071;SDS011;51663;52.310;17.016;2024-03-23T05:17:14;2.70;;;1.90;;
65071;SDS011;51663;52.310;17.016;2024-03-23T05:20:15;1.90;;;1.70;;
65071;SDS011;51663;52.310;17.016;2024-03-23T05:23:17;3.33;;;2.00;;
65071;SDS011;51663;52.310;17.016;2024-03-23T05:26:18;2.70;;;1.60;;
65071;SDS011;51663;52.310;17.016;2024-03-23T05:29:19;2.33;;;1.87;;
65071;SDS011;51663;52.310;17.016;2024-03-23T05:32:21;2.63;;;1.93;;
65071;SDS011;51663;52.310;17.016;2024-03-23T05:35:23;3.43;;;1.90;;
65071;SDS011;51663;52.310;17.016;2024-03-23T05:38:24;2.30;;;1.57;;
65071;SDS011;51663;52.310;17.016;2024-03-23T05:41:26;3.13;;;1.90;;
65071;SDS011;51663;52.310;17.016;2024-03-23T05:44:27;3.63;;;1.50;;
65071;SDS011;51663;52.310;17.016;2024-03-23T05:47:29;3.63;;;1.60;;
65071;SDS011;51663;52.310;17.016;2024-03-23T05:50:30;4.83;;;2.20;;
65071;SDS011;51663;52.310;17.016;2024-03-23T05:53:31;5.63;;;2.20;;
65071;SDS011;51663;52.310;17.016;2024-03-23T05:56:33;3.17;;;1.93;;
65071;SDS011;51663;52.310;17.016;2024-03-23T05:59:34;4.40;;;2.27;;
65071;SDS011;51663;52.310;17.016;2024-03-23T06:02:35;3.93;;;2.17;;
65071;SDS011;51663;52.310;17.016;2024-03-23T06:05:37;4.50;;;2.50;;
65071;SDS011;51663;52.310;17.016;2024-03-23T06:08:38;6.13;;;2.87;;
65071;SDS011;51663;52.310;17.016;2024-03-23T06:11:40;5.77;;;2.63;;
65071;SDS011;51663;52.310;17.016;2024-03-23T06:14:41;6.43;;;2.90;;
65071;SDS011;51663;52.310;17.016;2024-03-23T06:17:43;9.63;;;4.13;;
65071;SDS011;51663;52.310;17.016;2024-03-23T06:20:44;10.50;;;4.93;;
65071;SDS011;51663;52.310;17.016;2024-03-23T06:23:45;10.63;;;5.43;;
65071;SDS011;51663;52.310;17.016;2024-03-23T06:26:51;16.50;;;6.23;;
65071;SDS011;51663;52.310;17.016;2024-03-23T06:29:53;13.53;;;5.03;;
65071;SDS011;51663;52.310;17.016;2024-03-23T06:32:54;14.87;;;5.23;;
65071;SDS011;51663;52.310;17.016;2024-03-23T06:35:55;11.83;;;5.17;;
65071;SDS011;51663;52.310;17.016;2024-03-23T06:38:56;10.60;;;5.03;;
65071;SDS011;51663;52.310;17.016;2024-03-23T06:41:58;14.23;;;4.93;;
65071;SDS011;51663;52.310;17.016;2024-03-23T06:44:59;13.87;;;4.83;;
65071;SDS011;51663;52.310;17.016;2024-03-23T06:48:00;16.00;;;5.20;;
65071;SDS011;51663;52.310;17.016;2024-03-23T06:51:01;15.33;;;4.63;;
65071;SDS011;51663;52.310;17.016;2024-03-23T06:54:04;13.40;;;4.77;;
65071;SDS011;51663;52.310;17.016;2024-03-23T06:57:05;16.13;;;5.17;;
65071;SDS011;51663;52.310;17.016;2024-03-23T07:00:08;16.20;;;4.60;;
65071;SDS011;51663;52.310;17.016;2024-03-23T07:03:10;18.17;;;4.63;;
65071;SDS011;51663;52.310;17.016;2024-03-23T07:06:12;11.27;;;4.20;;
65071;SDS011;51663;52.310;17.016;2024-03-23T07:09:13;18.57;;;3.93;;
65071;SDS011;51663;52.310;17.016;2024-03-23T07:12:14;11.47;;;3.83;;
65071;SDS011;51663;52.310;17.016;2024-03-23T07:15:15;13.60;;;3.83;;
65071;SDS011;51663;52.310;17.016;2024-03-23T07:18:17;11.90;;;3.10;;
65071;SDS011;51663;52.310;17.016;2024-03-23T07:21:18;9.70;;;3.30;;
65071;SDS011;51663;52.310;17.016;2024-03-23T07:24:19;16.70;;;4.13;;
65071;SDS011;51663;52.310;17.016;2024-03-23T07:27:20;11.80;;;3.47;;
65071;SDS011;51663;52.310;17.016;2024-03-23T07:30:22;16.77;;;3.87;;
65071;SDS011;51663;52.310;17.016;2024-03-23T07:33:23;15.73;;;3.97;;
65071;SDS011;51663;52.310;17.016;2024-03-23T07:36:24;13.33;;;3.57;;
65071;SDS011;51663;52.310;17.016;2024-03-23T07:39:26;10.77;;;3.43;;
65071;SDS011;51663;52.310;17.016;2024-03-23T07:42:29;12.53;;;4.13;;
65071;SDS011;51663;52.310;17.016;2024-03-23T07:45:30;11.20;;;3.30;;
65071;SDS011;51663;52.310;17.016;2024-03-23T07:48:31;13.23;;;3.87;;
65071;SDS011;51663;52.310;17.016;2024-03-23T07:51:33;11.27;;;3.83;;
65071;SDS011;51663;52.310;17.016;2024-03-23T07:54:35;20.90;;;4.10;;
65071;SDS011;51663;52.310;17.016;2024-03-23T07:57:36;16.70;;;4.13;;
65071;SDS011;51663;52.310;17.016;2024-03-23T08:00:38;10.97;;;3.40;;
65071;SDS011;51663;52.310;17.016;2024-03-23T08:03:39;10.13;;;4.23;;
65071;SDS011;51663;52.310;17.016;2024-03-23T08:06:45;13.77;;;4.77;;
65071;SDS011;51663;52.310;17.016;2024-03-23T08:09:46;16.57;;;5.03;;
65071;SDS011;51663;52.310;17.016;2024-03-23T08:12:49;14.23;;;4.10;;
65071;SDS011;51663;52.310;17.016;2024-03-23T08:15:50;14.40;;;4.53;;
65071;SDS011;51663;52.310;17.016;2024-03-23T08:18:51;12.30;;;4.30;;
65071;SDS011;51663;52.310;17.016;2024-03-23T08:21:52;12.07;;;4.13;;
65071;SDS011;51663;52.310;17.016;2024-03-23T08:24:55;14.73;;;4.40;;
65071;SDS011;51663;52.310;17.016;2024-03-23T08:27:56;14.83;;;4.43;;
65071;SDS011;51663;52.310;17.016;2024-03-23T08:31:00;13.13;;;4.47;;
65071;SDS011;51663;52.310;17.016;2024-03-23T08:34:02;12.80;;;4.13;;
65071;SDS011;51663;52.310;17.016;2024-03-23T08:37:03;13.13;;;3.83;;
65071;SDS011;51663;52.310;17.016;2024-03-23T08:40:04;11.60;;;4.00;;
65071;SDS011;51663;52.310;17.016;2024-03-23T08:43:06;16.00;;;4.90;;
65071;SDS011;51663;52.310;17.016;2024-03-23T08:46:08;19.07;;;6.37;;
65071;SDS011;51663;52.310;17.016;2024-03-23T08:49:11;13.10;;;4.83;;
65071;SDS011;51663;52.310;17.016;2024-03-23T08:52:12;15.70;;;4.30;;
65071;SDS011;51663;52.310;17.016;2024-03-23T08:55:14;15.83;;;5.10;;
65071;SDS011;51663;52.310;17.016;2024-03-23T08:58:15;14.30;;;5.50;;
65071;SDS011;51663;52.310;17.016;2024-03-23T09:01:18;14.03;;;5.17;;
65071;SDS011;51663;52.310;17.016;2024-03-23T09:04:19;12.63;;;5.30;;
65071;SDS011;51663;52.310;17.016;2024-03-23T09:07:20;16.33;;;6.43;;
65071;SDS011;51663;52.310;17.016;2024-03-23T09:10:21;19.63;;;6.23;;
65071;SDS011;51663;52.310;17.016;2024-03-23T09:13:23;14.93;;;6.03;;
65071;SDS011;51663;52.310;17.016;2024-03-23T09:16:24;18.67;;;6.60;;
65071;SDS011;51663;52.310;17.016;2024-03-23T09:19:29;17.83;;;8.80;;
65071;SDS011;51663;52.310;17.016;2024-03-23T09:22:30;16.87;;;7.13;;
65071;SDS011;51663;52.310;17.016;2024-03-23T09:25:31;20.83;;;7.43;;
65071;SDS011;51663;52.310;17.016;2024-03-23T09:28:36;20.53;;;8.40;;
65071;SDS011;51663;52.310;17.016;2024-03-23T09:31:37;22.10;;;8.33;;
65071;SDS011;51663;52.310;17.016;2024-03-23T09:34:40;20.97;;;9.33;;
65071;SDS011;51663;52.310;17.016;2024-03-23T09:37:41;18.67;;;8.13;;
65071;SDS011;51663;52.310;17.016;2024-03-23T09:40:42;23.87;;;9.23;;
65071;SDS011;51663;52.310;17.016;2024-03-23T09:43:44;19.03;;;8.70;;
65071;SDS011;51663;52.310;17.016;2024-03-23T09:46:48;21.27;;;8.27;;
65071;SDS011;51663;52.310;17.016;2024-03-23T09:49:50;23.00;;;8.30;;
65071;SDS011;51663;52.310;17.016;2024-03-23T09:52:51;20.30;;;8.13;;
65071;SDS011;51663;52.310;17.016;2024-03-23T09:55:52;18.07;;;7.43;;
65071;SDS011;51663;52.310;17.016;2024-03-23T09:59:03;19.57;;;7.03;;
65071;SDS011;51663;52.310;17.016;2024-03-23T10:02:04;21.10;;;8.10;;
65071;SDS011;51663;52.310;17.016;2024-03-23T10:05:19;18.03;;;7.57;;
65071;SDS011;51663;52.310;17.016;2024-03-23T10:08:23;27.20;;;9.13;;
65071;SDS011;51663;52.310;17.016;2024-03-23T10:11:26;26.77;;;9.63;;
65071;SDS011;51663;52.310;17.016;2024-03-23T10:14:30;27.60;;;8.70;;
65071;SDS011;51663;52.310;17.016;2024-03-23T10:17:31;21.30;;;7.23;;
65071;SDS011;51663;52.310;17.016;2024-03-23T10:20:32;21.90;;;8.57;;
65071;SDS011;51663;52.310;17.016;2024-03-23T10:23:34;21.20;;;7.30;;
65071;SDS011;51663;52.310;17.016;2024-03-23T10:26:42;21.67;;;7.70;;
65071;SDS011;51663;52.310;17.016;2024-03-23T10:29:43;24.10;;;9.80;;
65071;SDS011;51663;52.310;17.016;2024-03-23T10:32:46;18.70;;;6.03;;
65071;SDS011;51663;52.310;17.016;2024-03-23T10:35:50;23.40;;;6.20;;
65071;SDS011;51663;52.310;17.016;2024-03-23T10:38:53;22.07;;;6.50;;
65071;SDS011;51663;52.310;17.016;2024-03-23T10:41:55;19.83;;;6.67;;
65071;SDS011;51663;52.310;17.016;2024-03-23T10:44:57;32.20;;;14.07;;
65071;SDS011;51663;52.310;17.016;2024-03-23T10:47:59;24.27;;;9.43;;
65071;SDS011;51663;52.310;17.016;2024-03-23T10:51:00;35.10;;;15.47;;
65071;SDS011;51663;52.310;17.016;2024-03-23T10:54:03;26.50;;;11.43;;
65071;SDS011;51663;52.310;17.016;2024-03-23T10:57:13;22.20;;;6.50;;
65071;SDS011;51663;52.310;17.016;2024-03-23T11:00:17;17.97;;;6.53;;
65071;SDS011;51663;52.310;17.016;2024-03-23T11:06:37;20.53;;;9.60;;
65071;SDS011;51663;52.310;17.016;2024-03-23T11:09:41;18.23;;;8.57;;
65071;SDS011;51663;52.310;17.016;2024-03-23T11:12:45;15.67;;;6.43;;
65071;SDS011;51663;52.310;17.016;2024-03-23T11:15:46;18.00;;;6.77;;
65071;SDS011;51663;52.310;17.016;2024-03-23T11:18:47;30.97;;;16.43;;
65071;SDS011;51663;52.310;17.016;2024-03-23T11:21:53;15.13;;;8.07;;
65071;SDS011;51663;52.310;17.016;2024-03-23T11:24:55;16.07;;;8.50;;
65071;SDS011;51663;52.310;17.016;2024-03-23T11:27:57;9.83;;;4.97;;
65071;SDS011;51663;52.310;17.016;2024-03-23T11:31:09;8.87;;;3.67;;
65071;SDS011;51663;52.310;17.016;2024-03-23T11:34:12;11.17;;;5.83;;
65071;SDS011;51663;52.310;17.016;2024-03-23T11:37:13;13.57;;;8.97;;
65071;SDS011;51663;52.310;17.016;2024-03-23T11:40:18;23.97;;;10.80;;
65071;SDS011;51663;52.310;17.016;2024-03-23T11:43:20;10.40;;;4.27;;
65071;SDS011;51663;52.310;17.016;2024-03-23T11:46:22;11.93;;;5.30;;
65071;SDS011;51663;52.310;17.016;2024-03-23T11:49:24;8.57;;;4.80;;
65071;SDS011;51663;52.310;17.016;2024-03-23T11:52:27;18.73;;;9.03;;
65071;SDS011;51663;52.310;17.016;2024-03-23T11:55:28;14.40;;;7.63;;
65071;SDS011;51663;52.310;17.016;2024-03-23T11:58:30;15.73;;;7.63;;
65071;SDS011;51663;52.310;17.016;2024-03-23T12:01:31;18.23;;;9.07;;
65071;SDS011;51663;52.310;17.016;2024-03-23T12:04:32;10.60;;;5.20;;
65071;SDS011;51663;52.310;17.016;2024-03-23T12:07:36;13.47;;;6.63;;
65071;SDS011;51663;52.310;17.016;2024-03-23T12:10:37;15.67;;;8.10;;
65071;SDS011;51663;52.310;17.016;2024-03-23T12:13:39;11.67;;;4.80;;
65071;SDS011;51663;52.310;17.016;2024-03-23T12:16:44;10.00;;;5.20;;
65071;SDS011;51663;52.310;17.016;2024-03-23T12:19:45;11.47;;;5.63;;
65071;SDS011;51663;52.310;17.016;2024-03-23T12:22:47;10.57;;;5.90;;
65071;SDS011;51663;52.310;17.016;2024-03-23T12:25:48;14.33;;;8.10;;
65071;SDS011;51663;52.310;17.016;2024-03-23T12:28:50;9.83;;;6.50;;
65071;SDS011;51663;52.310;17.016;2024-03-23T12:31:51;27.20;;;11.57;;
65071;SDS011;51663;52.310;17.016;2024-03-23T12:34:53;19.07;;;10.03;;
65071;SDS011;51663;52.310;17.016;2024-03-23T12:37:54;10.50;;;6.07;;
65071;SDS011;51663;52.310;17.016;2024-03-23T12:40:55;8.90;;;6.13;;
65071;SDS011;51663;52.310;17.016;2024-03-23T12:43:56;7.90;;;5.63;;
65071;SDS011;51663;52.310;17.016;2024-03-23T12:46:58;13.03;;;8.07;;
65071;SDS011;51663;52.310;17.016;2024-03-23T12:49:59;9.43;;;6.43;;
65071;SDS011;51663;52.310;17.016;2024-03-23T12:53:00;22.60;;;13.47;;
65071;SDS011;51663;52.310;17.016;2024-03-23T12:56:01;9.63;;;6.73;;
65071;SDS011;51663;52.310;17.016;2024-03-23T12:59:04;9.80;;;6.90;;
65071;SDS011;51663;52.310;17.016;2024-03-23T13:02:05;10.87;;;7.93;;
65071;SDS011;51663;52.310;17.016;2024-03-23T13:05:08;10.93;;;7.53;;
65071;SDS011;51663;52.310;17.016;2024-03-23T13:08:12;12.77;;;7.70;;
65071;SDS011;51663;52.310;17.016;2024-03-23T13:11:13;15.03;;;9.33;;
65071;SDS011;51663;52.310;17.016;2024-03-23T13:14:16;17.73;;;10.97;;
65071;SDS011;51663;52.310;17.016;2024-03-23T13:17:17;32.63;;;15.43;;
65071;SDS011;51663;52.310;17.016;2024-03-23T13:20:18;10.93;;;6.70;;
65071;SDS011;51663;52.310;17.016;2024-03-23T13:23:21;4.80;;;3.97;;
65071;SDS011;51663;52.310;17.016;2024-03-23T13:26:22;2.40;;;2.20;;
65071;SDS011;51663;52.310;17.016;2024-03-23T13:29:23;4.33;;;2.07;;
65071;SDS011;51663;52.310;17.016;2024-03-23T13:32:25;2.60;;;1.83;;
65071;SDS011;51663;52.310;17.016;2024-03-23T13:35:26;2.30;;;1.80;;
65071;SDS011;51663;52.310;17.016;2024-03-23T13:38:27;2.07;;;1.60;;
65071;SDS011;51663;52.310;17.016;2024-03-23T13:41:29;1.83;;;1.13;;
65071;SDS011;51663;52.310;17.016;2024-03-23T13:44:30;1.73;;;1.07;;
65071;SDS011;51663;52.310;17.016;2024-03-23T13:47:31;2.80;;;0.90;;
65071;SDS011;51663;52.310;17.016;2024-03-23T13:50:33;2.93;;;1.27;;
65071;SDS011;51663;52.310;17.016;2024-03-23T13:53:34;2.03;;;1.27;;
65071;SDS011;51663;52.310;17.016;2024-03-23T13:56:35;0.77;;;0.77;;
65071;SDS011;51663;52.310;17.016;2024-03-23T13:59:36;2.37;;;1.10;;
65071;SDS011;51663;52.310;17.016;2024-03-23T14:02:38;1.03;;;0.87;;
65071;SDS011;51663;52.310;17.016;2024-03-23T14:05:39;1.43;;;0.80;;
65071;SDS011;51663;52.310;17.016;2024-03-23T14:08:41;0.93;;;0.70;;
65071;SDS011;51663;52.310;17.016;2024-03-23T14:11:43;1.10;;;0.70;;
65071;SDS011;51663;52.310;17.016;2024-03-23T14:14:45;0.87;;;0.60;;
65071;SDS011;51663;52.310;17.016;2024-03-23T14:17:46;2.50;;;1.10;;
65071;SDS011;51663;52.310;17.016;2024-03-23T14:20:47;1.30;;;1.20;;
65071;SDS011;51663;52.310;17.016;2024-03-23T14:23:48;1.43;;;1.00;;
65071;SDS011;51663;52.310;17.016;2024-03-23T14:26:50;1.77;;;0.90;;
65071;SDS011;51663;52.310;17.016;2024-03-23T14:29:51;1.80;;;0.90;;
65071;SDS011;51663;52.310;17.016;2024-03-23T14:32:52;1.30;;;0.83;;
65071;SDS011;51663;52.310;17.016;2024-03-23T14:35:54;1.33;;;0.80;;
65071;SDS011;51663;52.310;17.016;2024-03-23T14:38:59;1.43;;;1.20;;
65071;SDS011;51663;52.310;17.016;2024-03-23T14:42:01;1.20;;;1.00;;
65071;SDS011;51663;52.310;17.016;2024-03-23T14:45:02;1.33;;;1.20;;
65071;SDS011;51663;52.310;17.016;2024-03-23T14:48:04;1.57;;;0.90;;
65071;SDS011;51663;52.310;17.016;2024-03-23T14:51:05;2.00;;;1.13;;
65071;SDS011;51663;52.310;17.016;2024-03-23T14:54:09;1.40;;;1.13;;
65071;SDS011;51663;52.310;17.016;2024-03-23T14:57:10;2.00;;;1.40;;
65071;SDS011;51663;52.310;17.016;2024-03-23T15:00:12;2.40;;;2.20;;
65071;SDS011;51663;52.310;17.016;2024-03-23T15:03:13;1.90;;;1.10;;
65071;SDS011;51663;52.310;17.016;2024-03-23T15:06:15;2.53;;;2.10;;
65071;SDS011;51663;52.310;17.016;2024-03-23T15:09:17;4.07;;;3.77;;
65071;SDS011;51663;52.310;17.016;2024-03-23T15:12:18;2.37;;;1.80;;
65071;SDS011;51663;52.310;17.016;2024-03-23T15:15:20;3.90;;;3.60;;
65071;SDS011;51663;52.310;17.016;2024-03-23T15:18:21;3.47;;;3.20;;
65071;SDS011;51663;52.310;17.016;2024-03-23T15:21:29;5.50;;;5.00;;
65071;SDS011;51663;52.310;17.016;2024-03-23T15:24:30;6.87;;;6.13;;
65071;SDS011;51663;52.310;17.016;2024-03-23T15:27:32;3.77;;;3.37;;
65071;SDS011;51663;52.310;17.016;2024-03-23T15:30:33;4.70;;;4.30;;
65071;SDS011;51663;52.310;17.016;2024-03-23T15:33:34;3.63;;;3.33;;
65071;SDS011;51663;52.310;17.016;2024-03-23T15:36:39;3.77;;;2.87;;
65071;SDS011;51663;52.310;17.016;2024-03-23T15:39:40;3.47;;;3.00;;
65071;SDS011;51663;52.310;17.016;2024-03-23T15:42:44;4.73;;;3.30;;
65071;SDS011;51663;52.310;17.016;2024-03-23T15:45:53;4.40;;;4.00;;
65071;SDS011;51663;52.310;17.016;2024-03-23T15:48:55;6.83;;;4.93;;
65071;SDS011;51663;52.310;17.016;2024-03-23T15:51:56;5.13;;;3.33;;
65071;SDS011;51663;52.310;17.016;2024-03-23T15:54:58;3.97;;;3.17;;
65071;SDS011;51663;52.310;17.016;2024-03-23T15:58:00;2.50;;;2.30;;
65071;SDS011;51663;52.310;17.016;2024-03-23T16:04:09;2.00;;;1.70;;
65071;SDS011;51663;52.310;17.016;2024-03-23T16:07:11;1.77;;;1.67;;
65071;SDS011;51663;52.310;17.016;2024-03-23T16:10:13;2.67;;;2.20;;
65071;SDS011;51663;52.310;17.016;2024-03-23T16:13:15;2.50;;;2.30;;
65071;SDS011;51663;52.310;17.016;2024-03-23T16:16:18;3.00;;;2.50;;
65071;SDS011;51663;52.310;17.016;2024-03-23T16:19:23;2.93;;;2.63;;
65071;SDS011;51663;52.310;17.016;2024-03-23T16:22:24;4.00;;;3.70;;
65071;SDS011;51663;52.310;17.016;2024-03-23T16:25:25;3.27;;;3.00;;
65071;SDS011;51663;52.310;17.016;2024-03-23T16:28:30;3.37;;;3.00;;
65071;SDS011;51663;52.310;17.016;2024-03-23T16:31:33;3.20;;;2.90;;
65071;SDS011;51663;52.310;17.016;2024-03-23T16:34:34;4.00;;;3.70;;
65071;SDS011;51663;52.310;17.016;2024-03-23T16:37:35;3.10;;;2.80;;
65071;SDS011;51663;52.310;17.016;2024-03-23T16:40:36;2.60;;;1.70;;
65071;SDS011;51663;52.310;17.016;2024-03-23T16:43:37;2.70;;;1.80;;
65071;SDS011;51663;52.310;17.016;2024-03-23T16:46:40;2.00;;;1.80;;
65071;SDS011;51663;52.310;17.016;2024-03-23T16:49:42;1.83;;;1.67;;
65071;SDS011;51663;52.310;17.016;2024-03-23T16:52:43;2.23;;;1.93;;
65071;SDS011;51663;52.310;17.016;2024-03-23T16:55:45;2.83;;;2.00;;
65071;SDS011;51663;52.310;17.016;2024-03-23T16:58:46;2.13;;;1.83;;
65071;SDS011;51663;52.310;17.016;2024-03-23T17:01:49;2.00;;;1.80;;
65071;SDS011;51663;52.310;17.016;2024-03-23T17:04:51;3.70;;;3.40;;
65071;SDS011;51663;52.310;17.016;2024-03-23T17:07:52;2.47;;;2.27;;
65071;SDS011;51663;52.310;17.016;2024-03-23T17:10:57;3.37;;;3.07;;
65071;SDS011;51663;52.310;17.016;2024-03-23T17:14:02;3.73;;;3.17;;
65071;SDS011;51663;52.310;17.016;2024-03-23T17:17:03;4.43;;;4.13;;
65071;SDS011;51663;52.310;17.016;2024-03-23T17:20:04;4.10;;;3.60;;
65071;SDS011;51663;52.310;17.016;2024-03-23T17:23:07;3.33;;;2.87;;
65071;SDS011;51663;52.310;17.016;2024-03-23T17:26:08;3.53;;;2.70;;
65071;SDS011;51663;52.310;17.016;2024-03-23T17:29:10;3.40;;;3.10;;
65071;SDS011;51663;52.310;17.016;2024-03-23T17:32:12;3.27;;;2.97;;
65071;SDS011;51663;52.310;17.016;2024-03-23T17:35:13;3.40;;;2.70;;
65071;SDS011;51663;52.310;17.016;2024-03-23T17:38:15;4.07;;;3.67;;
65071;SDS011;51663;52.310;17.016;2024-03-23T17:41:16;4.00;;;3.70;;
65071;SDS011;51663;52.310;17.016;2024-03-23T17:44:19;3.63;;;3.27;;
65071;SDS011;51663;52.310;17.016;2024-03-23T17:47:21;4.80;;;4.10;;
65071;SDS011;51663;52.310;17.016;2024-03-23T17:50:22;4.10;;;3.80;;
65071;SDS011;51663;52.310;17.016;2024-03-23T17:53:24;4.47;;;4.07;;
65071;SDS011;51663;52.310;17.016;2024-03-23T17:56:25;5.60;;;5.03;;
65071;SDS011;51663;52.310;17.016;2024-03-23T17:59:26;6.37;;;5.53;;
65071;SDS011;51663;52.310;17.016;2024-03-23T18:02:28;7.47;;;6.77;;
65071;SDS011;51663;52.310;17.016;2024-03-23T18:05:29;21.77;;;19.40;;
65071;SDS011;51663;52.310;17.016;2024-03-23T18:08:30;11.27;;;10.10;;
65071;SDS011;51663;52.310;17.016;2024-03-23T18:11:31;7.53;;;4.37;;
65071;SDS011;51663;52.310;17.016;2024-03-23T18:14:34;4.83;;;4.33;;
65071;SDS011;51663;52.310;17.016;2024-03-23T18:17:35;5.37;;;3.90;;
65071;SDS011;51663;52.310;17.016;2024-03-23T18:20:36;4.87;;;4.37;;
65071;SDS011;51663;52.310;17.016;2024-03-23T18:23:38;4.97;;;4.40;;
65071;SDS011;51663;52.310;17.016;2024-03-23T18:26:39;9.10;;;6.50;;
65071;SDS011;51663;52.310;17.016;2024-03-23T18:29:40;8.20;;;6.47;;
65071;SDS011;51663;52.310;17.016;2024-03-23T18:32:42;7.73;;;6.57;;
65071;SDS011;51663;52.310;17.016;2024-03-23T18:35:43;8.57;;;6.17;;
65071;SDS011;51663;52.310;17.016;2024-03-23T18:38:50;8.63;;;6.10;;
65071;SDS011;51663;52.310;17.016;2024-03-23T18:41:51;7.30;;;6.60;;
65071;SDS011;51663;52.310;17.016;2024-03-23T18:44:53;9.53;;;7.27;;